createdAt,value
2022-11-02T00:00:25.536Z,46.20
2022-11-02T00:03:12.369Z,48.20
2022-11-02T00:05:39.452Z,44.60
2022-11-02T00:08:06.550Z,49.00
2022-11-02T00:10:33.368Z,41.80
2022-11-02T00:13:00.464Z,43.60
2022-11-02T00:15:31.805Z,47.40
2022-11-02T00:20:31.463Z,45.80
2022-11-02T00:23:02.705Z,45.10
2022-11-02T00:25:31.066Z,46.90
2022-11-02T00:27:58.319Z,49.60
2022-11-02T00:30:25.371Z,48.70
2022-11-02T00:32:53.167Z,53.20
2022-11-02T00:35:20.272Z,49.40
2022-11-02T00:37:47.205Z,50.80
2022-11-02T00:40:14.832Z,48.50
2022-11-02T00:42:41.696Z,50.60
2022-11-02T00:45:10.758Z,47.70
2022-11-02T00:47:38.040Z,48.10
2022-11-02T00:50:05.302Z,46.00
2022-11-02T00:52:32.776Z,49.00
2022-11-02T00:55:00.109Z,47.00
2022-11-02T00:57:27.712Z,50.20
2022-11-02T00:59:54.832Z,49.90
2022-11-02T01:02:21.836Z,51.20
2022-11-02T01:04:48.837Z,49.70
2022-11-02T01:07:15.749Z,48.50
2022-11-02T01:09:42.620Z,48.30
2022-11-02T01:12:09.743Z,49.20
2022-11-02T01:14:37.759Z,49.50
2022-11-02T01:17:04.865Z,48.50
2022-11-02T01:19:31.776Z,48.40
2022-11-02T01:21:58.881Z,46.00
2022-11-02T01:24:25.825Z,42.80
2022-11-02T01:26:54.204Z,47.10
2022-11-02T01:29:21.584Z,47.30
2022-11-02T01:31:48.643Z,47.80
2022-11-02T01:34:17.692Z,47.50
2022-11-02T01:36:48.112Z,51.00
2022-11-02T01:39:17.645Z,50.50
2022-11-02T01:41:45.261Z,52.80
2022-11-02T01:44:30.187Z,56.70
2022-11-02T01:47:00.683Z,52.90
2022-11-02T01:49:29.030Z,52.70
2022-11-02T01:52:04.179Z,54.10
2022-11-02T01:54:38.003Z,52.40
2022-11-02T01:57:07.910Z,61.50
2022-11-02T01:59:40.554Z,61.90
2022-11-02T02:02:12.843Z,63.80
2022-11-02T02:04:40.359Z,64.40
2022-11-02T02:07:07.158Z,62.10
2022-11-02T02:09:35.965Z,68.00
2022-11-02T02:12:02.829Z,59.30
2022-11-02T02:14:29.901Z,72.70
2022-11-02T02:17:09.195Z,73.10
2022-11-02T02:19:49.388Z,97.90
2022-11-02T02:22:54.455Z,85.50
2022-11-02T02:25:48.102Z,85.10
2022-11-02T02:28:21.183Z,78.30
2022-11-02T02:30:52.460Z,85.20
2022-11-02T02:33:28.330Z,87.00
2022-11-02T02:36:00.825Z,88.40
2022-11-02T02:38:33.840Z,103.00
2022-11-02T02:41:11.129Z,103.40
2022-11-02T02:43:43.159Z,102.50
2022-11-02T02:46:14.699Z,155.30
2022-11-02T02:48:44.944Z,104.90
2022-11-02T02:51:16.913Z,107.50
2022-11-02T02:53:48.455Z,132.60
2022-11-02T02:56:20.061Z,101.50
2022-11-02T02:58:52.847Z,124.90
2022-11-02T03:01:21.057Z,114.40
2022-11-02T03:03:48.312Z,109.60
2022-11-02T03:06:21.202Z,118.00
2022-11-02T03:09:04.923Z,113.50
2022-11-02T03:11:33.949Z,120.30
2022-11-02T03:14:22.912Z,133.40
2022-11-02T03:17:04.350Z,100.60
2022-11-02T03:19:43.222Z,111.80
2022-11-02T03:22:22.994Z,119.50
2022-11-02T03:25:00.337Z,115.20
2022-11-02T03:27:36.874Z,109.30
2022-11-02T03:30:09.698Z,109.00
2022-11-02T03:32:42.171Z,107.90
2022-11-02T03:35:16.669Z,108.60
2022-11-02T03:37:48.012Z,110.60
2022-11-02T03:40:20.372Z,108.00
2022-11-02T03:42:49.368Z,105.60
2022-11-02T03:45:19.943Z,100.90
2022-11-02T03:47:53.316Z,104.20
2022-11-02T03:50:24.491Z,108.00
2022-11-02T03:52:55.506Z,104.40
2022-11-02T03:55:27.299Z,102.30
2022-11-02T03:57:55.371Z,104.20
2022-11-02T04:00:29.222Z,105.60
2022-11-02T04:03:04.024Z,98.80
2022-11-02T04:05:34.355Z,110.20
2022-11-02T04:08:24.612Z,121.70
2022-11-02T04:11:14.375Z,138.50
2022-11-02T04:14:00.072Z,126.70
2022-11-02T04:16:28.608Z,116.50
2022-11-02T04:19:13.728Z,120.80
2022-11-02T04:21:41.411Z,114.70
2022-11-02T04:24:26.949Z,105.20
2022-11-02T04:26:53.788Z,112.00
2022-11-02T04:29:20.836Z,123.10
2022-11-02T04:31:48.172Z,112.80
2022-11-02T04:34:15.212Z,131.70
2022-11-02T04:36:42.193Z,117.40
2022-11-02T04:39:09.566Z,131.20
2022-11-02T04:41:42.649Z,124.60
2022-11-02T04:44:16.142Z,117.60
2022-11-02T04:46:46.719Z,113.40
2022-11-02T04:49:14.414Z,121.70
2022-11-02T04:51:45.763Z,114.20
2022-11-02T04:54:16.192Z,109.10
2022-11-02T04:56:43.707Z,105.50
2022-11-02T04:59:11.541Z,107.70
2022-11-02T05:01:38.773Z,113.00
2022-11-02T05:04:06.327Z,119.40
2022-11-02T05:06:37.378Z,111.20
2022-11-02T05:09:06.184Z,139.30
2022-11-02T05:11:33.303Z,163.00
2022-11-02T05:14:00.647Z,142.50
2022-11-02T05:16:28.564Z,165.70
2022-11-02T05:18:55.466Z,114.30
2022-11-02T05:21:23.322Z,146.60
2022-11-02T05:23:50.518Z,128.00
2022-11-02T05:26:17.680Z,133.00
2022-11-02T05:28:46.780Z,150.40
2022-11-02T05:31:13.799Z,156.60
2022-11-02T05:33:40.767Z,130.70
2022-11-02T05:36:12.773Z,133.50
2022-11-02T05:38:40.916Z,135.70
2022-11-02T05:41:08.533Z,129.10
2022-11-02T05:43:36.511Z,113.80
2022-11-02T05:46:05.643Z,119.40
2022-11-02T05:48:33.868Z,132.70
2022-11-02T05:51:03.365Z,112.90
2022-11-02T05:53:32.705Z,110.30
2022-11-02T05:56:02.272Z,104.00
2022-11-02T05:58:29.616Z,110.10
2022-11-02T06:00:59.750Z,119.80
2022-11-02T06:03:26.888Z,115.00
2022-11-02T06:06:00.912Z,100.20
2022-11-02T06:08:28.545Z,95.90
2022-11-02T06:10:55.382Z,102.50
2022-11-02T06:13:22.383Z,95.50
2022-11-02T06:15:49.201Z,96.70
2022-11-02T06:18:15.972Z,91.90
2022-11-02T06:20:42.844Z,88.40
2022-11-02T06:23:09.706Z,85.60
2022-11-02T06:25:36.613Z,92.30
2022-11-02T06:28:03.459Z,79.50
2022-11-02T06:30:30.370Z,80.70
2022-11-02T06:32:58.684Z,81.10
2022-11-02T06:35:28.462Z,78.70
2022-11-02T06:37:55.501Z,75.80
2022-11-02T06:40:25.646Z,71.50
2022-11-02T06:45:46.907Z,64.70
2022-11-02T06:48:13.940Z,68.70
2022-11-02T06:50:40.828Z,64.20
2022-11-02T06:53:07.856Z,68.20
2022-11-02T06:55:34.832Z,68.50
2022-11-02T06:58:01.731Z,59.80
2022-11-02T07:00:29.703Z,57.50
2022-11-02T07:03:04.291Z,57.90
2022-11-02T07:05:31.940Z,52.60
2022-11-02T07:07:59.349Z,53.30
2022-11-02T07:10:26.834Z,49.10
2022-11-02T07:12:56.298Z,51.70
2022-11-02T07:15:24.275Z,48.50
2022-11-02T07:17:51.913Z,48.50
2022-11-02T07:20:19.452Z,50.20
2022-11-02T07:22:55.177Z,55.50
2022-11-02T07:25:22.300Z,51.10
2022-11-02T07:27:49.171Z,48.70
2022-11-02T07:30:16.770Z,53.00
2022-11-02T07:32:44.584Z,45.60
2022-11-02T07:35:13.514Z,47.60
2022-11-02T07:37:41.050Z,48.00
2022-11-02T07:40:10.720Z,47.70
2022-11-02T07:42:37.671Z,47.60
2022-11-02T07:45:07.165Z,47.00
2022-11-02T07:47:34.055Z,47.20
2022-11-02T07:50:02.192Z,44.60
2022-11-02T07:52:29.403Z,50.40
2022-11-02T07:54:56.866Z,46.50
2022-11-02T07:57:23.760Z,49.60
2022-11-02T07:59:50.743Z,48.00
2022-11-02T08:02:17.711Z,50.10
2022-11-02T08:04:45.225Z,51.70
2022-11-02T08:07:13.292Z,45.70
2022-11-02T08:09:40.218Z,45.20
2022-11-02T08:12:12.075Z,46.50
2022-11-02T08:14:38.955Z,48.40
2022-11-02T08:17:06.267Z,43.20
2022-11-02T08:19:33.273Z,45.70
2022-11-02T08:22:00.351Z,42.10
2022-11-02T08:24:27.222Z,45.70
2022-11-02T08:26:55.016Z,41.20
2022-11-02T08:29:22.124Z,46.50
2022-11-02T08:31:50.612Z,39.50
2022-11-02T08:34:17.619Z,37.90
2022-11-02T08:36:44.822Z,43.30
2022-11-02T08:39:17.515Z,42.60
2022-11-02T08:41:45.732Z,40.70
2022-11-02T08:44:12.599Z,39.10
2022-11-02T08:46:39.792Z,41.90
2022-11-02T08:49:06.752Z,42.60
2022-11-02T08:51:33.708Z,43.10
2022-11-02T08:54:00.635Z,41.80
2022-11-02T08:56:27.551Z,45.40
2022-11-02T08:58:54.582Z,39.00
2022-11-02T09:01:23.597Z,38.30
2022-11-02T09:03:50.533Z,40.00
2022-11-02T09:06:17.613Z,41.50
2022-11-02T09:08:44.874Z,41.80
2022-11-02T09:11:12.398Z,37.30
2022-11-02T09:13:40.639Z,35.10
2022-11-02T09:16:09.810Z,37.40
2022-11-02T09:18:36.817Z,39.70
2022-11-02T09:21:05.943Z,42.80
2022-11-02T09:23:33.453Z,40.30
2022-11-02T09:26:01.423Z,39.30
2022-11-02T09:28:28.641Z,37.30
2022-11-02T09:30:55.781Z,41.60
2022-11-02T09:33:25.261Z,41.20
2022-11-02T09:35:52.312Z,46.30
2022-11-02T09:38:19.893Z,38.40
2022-11-02T09:40:52.892Z,37.60
2022-11-02T09:43:32.643Z,37.40
2022-11-02T09:46:03.396Z,36.20
2022-11-02T09:48:36.356Z,35.20
2022-11-02T09:51:08.753Z,38.90
2022-11-02T09:53:49.917Z,33.60
2022-11-02T09:56:20.629Z,37.20
2022-11-02T09:58:54.543Z,39.10
2022-11-02T10:01:34.513Z,33.40
2022-11-02T10:04:21.565Z,36.60
2022-11-02T10:06:56.854Z,34.50
2022-11-02T10:09:29.382Z,38.70
2022-11-02T10:12:03.333Z,37.10
2022-11-02T10:14:36.796Z,34.40
2022-11-02T10:17:13.592Z,33.80
2022-11-02T10:19:45.164Z,36.50
2022-11-02T10:22:16.200Z,36.60
2022-11-02T10:24:45.290Z,39.80
2022-11-02T10:27:21.228Z,38.70
2022-11-02T10:29:59.206Z,38.10
2022-11-02T10:32:26.433Z,36.40
2022-11-02T10:34:58.966Z,38.40
2022-11-02T10:37:49.412Z,37.70
2022-11-02T10:40:32.772Z,35.20
2022-11-02T10:43:14.911Z,34.20
2022-11-02T10:46:03.397Z,36.50
2022-11-02T10:48:39.493Z,38.60
2022-11-02T10:51:12.454Z,39.50
2022-11-02T10:53:43.357Z,34.80
2022-11-02T10:56:16.691Z,35.60
2022-11-02T10:58:51.175Z,28.30
2022-11-02T11:01:18.764Z,36.40
2022-11-02T11:04:00.350Z,34.70
2022-11-02T11:06:28.935Z,30.70
2022-11-02T11:09:02.307Z,33.40
2022-11-02T11:11:31.976Z,29.50
2022-11-02T11:16:53.264Z,28.50
2022-11-02T11:22:29.752Z,25.70
2022-11-02T11:25:16.704Z,25.10
2022-11-02T11:27:48.614Z,23.80
2022-11-02T11:30:54.012Z,22.50
2022-11-02T11:33:23.078Z,25.10
2022-11-02T11:35:53.504Z,20.00
2022-11-02T11:38:23.917Z,25.10
2022-11-02T11:40:54.337Z,20.70
2022-11-02T11:43:23.455Z,19.40
2022-11-02T11:46:05.302Z,27.00
2022-11-02T11:48:39.111Z,23.80
2022-11-02T11:51:24.396Z,21.40
2022-11-02T11:54:18.230Z,21.50
2022-11-02T11:56:45.195Z,22.40
2022-11-02T11:59:24.555Z,27.40
2022-11-02T12:01:53.284Z,23.50
2022-11-02T12:04:30.817Z,23.80
2022-11-02T12:07:07.859Z,21.30
2022-11-02T12:12:14.166Z,28.50
2022-11-02T12:17:27.656Z,27.80
2022-11-02T12:20:12.200Z,23.50
2022-11-02T12:22:50.991Z,23.60
2022-11-02T12:25:41.813Z,25.80
2022-11-02T12:28:23.956Z,24.10
2022-11-02T12:31:02.591Z,22.70
2022-11-02T12:33:44.240Z,23.60
2022-11-02T12:36:20.863Z,21.80
2022-11-02T12:38:58.029Z,25.80
2022-11-02T12:41:39.067Z,22.50
2022-11-02T12:44:18.427Z,22.10
2022-11-02T12:46:53.794Z,22.70
2022-11-02T12:49:36.032Z,24.60
2022-11-02T12:52:14.484Z,22.60
2022-11-02T12:54:46.972Z,21.20
2022-11-02T12:57:18.447Z,24.20
2022-11-02T12:59:47.640Z,22.10
2022-11-02T13:02:19.909Z,27.20
2022-11-02T13:04:52.538Z,21.70
2022-11-02T13:07:27.189Z,22.20
2022-11-02T13:10:02.033Z,24.50
2022-11-02T13:12:31.911Z,18.50
2022-11-02T13:15:02.235Z,21.60
2022-11-02T13:17:37.074Z,22.10
2022-11-02T13:20:14.479Z,24.30
2022-11-02T13:22:44.098Z,22.70
2022-11-02T13:25:20.826Z,16.70
2022-11-02T13:27:52.984Z,19.20
2022-11-02T13:30:21.044Z,28.20
2022-11-02T13:32:51.247Z,24.50
2022-11-02T13:35:23.888Z,26.90
2022-11-02T13:37:54.621Z,22.00
2022-11-02T13:40:26.732Z,30.80
2022-11-02T13:43:30.489Z,23.20
2022-11-02T13:46:14.909Z,23.40
2022-11-02T13:48:52.603Z,26.90
2022-11-02T13:51:30.149Z,28.40
2022-11-02T13:54:02.168Z,25.40
2022-11-02T13:56:31.190Z,23.60
2022-11-02T13:59:01.970Z,27.80
2022-11-02T14:01:33.007Z,28.00
2022-11-02T14:04:04.034Z,22.00
2022-11-02T14:06:33.329Z,30.20
2022-11-02T14:09:03.458Z,28.70
2022-11-02T14:11:37.798Z,30.10
2022-11-02T14:14:22.844Z,28.20
2022-11-02T14:17:13.031Z,33.40
2022-11-02T14:19:55.096Z,30.20
2022-11-02T14:22:23.517Z,30.50
2022-11-02T14:25:18.837Z,27.20
2022-11-02T14:27:46.104Z,30.50
2022-11-02T14:30:46.734Z,27.60
2022-11-02T14:33:33.333Z,27.20
2022-11-02T14:36:06.012Z,30.90
2022-11-02T14:38:53.843Z,29.10
2022-11-02T14:41:47.215Z,27.90
2022-11-02T14:44:35.104Z,30.30
2022-11-02T14:47:09.803Z,27.70
2022-11-02T14:49:41.141Z,30.40
2022-11-02T14:52:23.948Z,30.20
2022-11-02T14:54:54.679Z,30.10
2022-11-02T14:57:28.717Z,29.10
2022-11-02T14:59:59.102Z,34.10
2022-11-02T15:02:31.262Z,30.30
2022-11-02T15:05:00.648Z,28.80
2022-11-02T15:07:35.957Z,40.60
2022-11-02T15:10:04.197Z,34.80
2022-11-02T15:12:35.988Z,41.30
2022-11-02T15:15:07.733Z,31.10
2022-11-02T15:17:59.675Z,32.70
2022-11-02T15:20:34.698Z,32.30
2022-11-02T15:23:31.429Z,37.80
2022-11-02T15:26:01.679Z,30.70
2022-11-02T15:28:33.793Z,32.80
2022-11-02T15:31:05.710Z,35.30
2022-11-02T15:33:39.904Z,36.20
2022-11-02T15:36:10.135Z,35.10
2022-11-02T15:38:40.185Z,32.50
2022-11-02T15:41:19.658Z,36.10
2022-11-02T15:43:59.120Z,37.50
2022-11-02T15:46:44.357Z,37.60
2022-11-02T15:49:24.048Z,34.80
2022-11-02T15:51:57.788Z,37.80
2022-11-02T15:54:49.745Z,35.90
2022-11-02T15:57:25.749Z,37.20
2022-11-02T16:00:13.323Z,36.50
2022-11-02T16:05:17.190Z,32.60
2022-11-02T16:08:05.216Z,37.30
2022-11-02T16:10:34.603Z,37.60
2022-11-02T16:13:11.860Z,36.50
2022-11-02T16:15:42.223Z,44.30
2022-11-02T16:18:22.770Z,38.30
2022-11-02T16:20:49.794Z,40.70
2022-11-02T16:23:24.315Z,47.20
2022-11-02T16:25:54.780Z,44.40
2022-11-02T16:28:24.512Z,41.10
2022-11-02T16:31:14.418Z,34.60
2022-11-02T16:33:44.803Z,36.70
2022-11-02T16:36:13.775Z,37.10
2022-11-02T16:38:46.847Z,39.20
2022-11-02T16:41:17.609Z,34.70
2022-11-02T16:43:47.852Z,37.40
2022-11-02T16:46:18.337Z,35.20
2022-11-02T16:49:09.386Z,37.70
2022-11-02T16:51:36.784Z,32.90
2022-11-02T16:54:27.170Z,37.30
2022-11-02T16:56:56.813Z,31.00
2022-11-02T16:59:25.646Z,30.80
2022-11-02T17:01:58.452Z,29.20
2022-11-02T17:04:27.681Z,28.50
2022-11-02T17:06:56.880Z,32.80
2022-11-02T17:09:28.329Z,35.90
2022-11-02T17:11:58.002Z,34.40
2022-11-02T17:14:26.631Z,31.40
2022-11-02T17:17:09.481Z,30.70
2022-11-02T17:19:57.765Z,37.50
2022-11-02T17:22:30.337Z,24.20
2022-11-02T17:25:14.521Z,31.10
2022-11-02T17:27:43.008Z,26.60
2022-11-02T17:30:48.358Z,26.90
2022-11-02T17:33:25.039Z,33.60
2022-11-02T17:35:53.840Z,31.80
2022-11-02T17:38:22.468Z,29.90
2022-11-02T17:40:52.295Z,37.60
2022-11-02T17:43:19.295Z,31.40
2022-11-02T17:45:54.371Z,25.10
2022-11-02T17:48:21.367Z,34.10
2022-11-02T17:50:53.144Z,31.00
2022-11-02T17:53:20.105Z,28.00
2022-11-02T17:55:47.007Z,28.30
2022-11-02T17:58:15.380Z,31.80
2022-11-02T18:00:42.871Z,27.30
2022-11-02T18:03:17.504Z,30.30
2022-11-02T18:05:48.521Z,28.50
2022-11-02T18:08:17.267Z,25.70
2022-11-02T18:10:46.052Z,26.00
2022-11-02T18:13:14.754Z,28.10
2022-11-02T18:15:42.218Z,22.10
2022-11-02T18:18:09.538Z,19.20
2022-11-02T18:20:41.558Z,24.50
2022-11-02T18:23:15.070Z,22.20
2022-11-02T18:25:41.992Z,25.70
2022-11-02T18:28:09.180Z,27.60
2022-11-02T18:30:36.455Z,22.00
2022-11-02T18:33:03.779Z,21.40
2022-11-02T18:35:30.696Z,21.00
2022-11-02T18:37:57.745Z,24.80
2022-11-02T18:40:25.146Z,22.80
2022-11-02T18:42:52.556Z,23.10
2022-11-02T18:45:19.906Z,26.40
2022-11-02T18:47:47.013Z,18.50
2022-11-02T18:50:15.138Z,23.10
2022-11-02T18:52:49.650Z,18.70
2022-11-02T18:55:21.182Z,20.10
2022-11-02T18:57:50.969Z,23.40
2022-11-02T19:00:18.975Z,22.20
2022-11-02T19:02:46.301Z,26.60
2022-11-02T19:05:27.215Z,26.80
2022-11-02T19:08:11.924Z,30.10
2022-11-02T19:10:38.863Z,22.10
2022-11-02T19:13:06.063Z,27.70
2022-11-02T19:15:39.783Z,25.30
2022-11-02T19:18:10.487Z,27.50
2022-11-02T19:20:37.401Z,28.40
2022-11-02T19:23:04.258Z,23.30
2022-11-02T19:25:31.276Z,26.10
2022-11-02T19:27:58.240Z,26.10
2022-11-02T19:30:25.253Z,26.20
2022-11-02T19:32:52.218Z,24.80
2022-11-02T19:35:21.375Z,25.70
2022-11-02T19:37:48.339Z,23.60
2022-11-02T19:40:18.182Z,23.70
2022-11-02T19:42:49.865Z,26.40
2022-11-02T19:45:17.923Z,24.20
2022-11-02T19:47:45.090Z,24.70
2022-11-02T19:50:12.559Z,26.70
2022-11-02T19:52:39.485Z,23.20
2022-11-02T19:55:07.038Z,31.20
2022-11-02T19:57:33.987Z,23.40
2022-11-02T20:00:00.872Z,24.00
2022-11-02T20:02:27.889Z,26.40
2022-11-02T20:04:54.919Z,26.00
2022-11-02T20:07:21.926Z,23.70
2022-11-02T20:09:49.007Z,22.00
2022-11-02T20:12:15.862Z,21.70
2022-11-02T20:14:42.755Z,24.50
2022-11-02T20:17:30.255Z,23.30
2022-11-02T20:19:56.500Z,25.20
2022-11-02T20:22:23.656Z,28.70
2022-11-02T20:24:50.658Z,27.20
2022-11-02T20:27:17.840Z,25.60
2022-11-02T20:29:44.882Z,21.50
2022-11-02T20:32:12.670Z,25.30
2022-11-02T20:34:39.834Z,21.30
2022-11-02T20:37:07.638Z,25.90
2022-11-02T20:39:35.194Z,26.80
2022-11-02T20:42:02.250Z,24.30
2022-11-02T20:44:29.357Z,25.20
2022-11-02T20:46:57.530Z,27.30
2022-11-02T20:49:54.363Z,27.40
2022-11-02T20:52:12.825Z,26.90
2022-11-02T20:54:40.039Z,22.20
2022-11-02T20:57:07.609Z,25.10
2022-11-02T20:59:34.425Z,24.60
2022-11-02T21:02:01.484Z,29.90
2022-11-02T21:04:28.572Z,19.70
2022-11-02T21:06:55.528Z,24.00
2022-11-02T21:09:24.515Z,22.70
2022-11-02T21:12:09.545Z,28.10
2022-11-02T21:14:36.595Z,20.90
2022-11-02T21:17:05.597Z,23.00
2022-11-02T21:19:32.573Z,22.10
2022-11-02T21:22:00.673Z,22.90
2022-11-02T21:24:28.019Z,18.50
2022-11-02T21:26:54.936Z,19.50
2022-11-02T21:29:22.706Z,22.30
2022-11-02T21:31:49.947Z,27.60
2022-11-02T21:34:17.516Z,24.60
2022-11-02T21:36:44.527Z,22.90
2022-11-02T21:39:11.614Z,24.90
2022-11-02T21:41:39.635Z,27.90
2022-11-02T21:44:07.838Z,30.70
2022-11-02T21:46:35.122Z,26.30
2022-11-02T21:49:03.191Z,24.70
2022-11-02T21:51:30.335Z,28.30
2022-11-02T21:53:57.382Z,26.60
2022-11-02T21:56:26.700Z,25.50
2022-11-02T21:58:54.231Z,25.90
2022-11-02T22:01:48.684Z,26.90
2022-11-02T22:04:19.520Z,24.20
2022-11-02T22:06:49.212Z,23.40
2022-11-02T22:09:16.410Z,26.00
2022-11-02T22:11:45.078Z,22.90
2022-11-02T22:14:12.430Z,21.50
2022-11-02T22:16:41.171Z,23.20
2022-11-02T22:19:10.003Z,24.20
2022-11-02T22:21:40.081Z,24.50
2022-11-02T22:24:08.110Z,25.70
2022-11-02T22:26:39.371Z,20.10
2022-11-02T22:29:07.253Z,22.90
2022-11-02T22:31:35.879Z,23.10
2022-11-02T22:34:04.938Z,24.80
2022-11-02T22:36:34.217Z,21.80
2022-11-02T22:39:02.559Z,20.40
2022-11-02T22:41:30.909Z,25.10
2022-11-02T22:43:59.062Z,21.90
2022-11-02T22:46:28.502Z,21.60
2022-11-02T22:48:57.103Z,26.00
2022-11-02T22:51:27.856Z,22.90
2022-11-02T22:53:55.951Z,24.50
2022-11-02T22:56:24.530Z,23.10
2022-11-02T22:58:52.448Z,18.60
2022-11-02T23:01:21.484Z,22.30
2022-11-02T23:03:50.586Z,26.40
2022-11-02T23:06:21.345Z,21.30
2022-11-02T23:08:49.148Z,23.10
2022-11-02T23:11:23.862Z,19.60
2022-11-02T23:13:52.680Z,18.70
2022-11-02T23:16:23.929Z,22.70
2022-11-02T23:19:10.945Z,21.90
2022-11-02T23:21:38.710Z,23.00
2022-11-02T23:24:23.805Z,20.40
2022-11-02T23:26:50.828Z,19.40
2022-11-02T23:29:31.522Z,21.00
2022-11-02T23:32:16.580Z,16.60
2022-11-02T23:35:03.983Z,15.30
2022-11-02T23:37:31.667Z,12.30
2022-11-02T23:39:58.800Z,15.60
2022-11-02T23:42:28.099Z,15.90
2022-11-02T23:44:57.438Z,16.20
2022-11-02T23:47:44.992Z,15.40
2022-11-02T23:50:35.628Z,14.30
2022-11-02T23:53:20.137Z,15.80
2022-11-02T23:56:07.451Z,14.50
2022-11-02T23:58:34.504Z,16.60
